createdAt,value
2023-04-15T00:01:12.025Z,6.13
2023-04-15T00:03:39.793Z,7.75
2023-04-15T00:06:07.784Z,6.72
2023-04-15T00:08:35.080Z,8.75
2023-04-15T00:11:05.808Z,8.35
2023-04-15T00:13:34.197Z,10.13
2023-04-15T00:16:01.694Z,7.13
2023-04-15T00:18:30.002Z,7.85
2023-04-15T00:20:57.367Z,6.85
2023-04-15T00:23:24.918Z,7.80
2023-04-15T00:25:52.237Z,7.70
2023-04-15T00:28:19.550Z,10.00
2023-04-15T00:30:47.358Z,8.27
2023-04-15T00:33:14.941Z,7.40
2023-04-15T00:35:42.269Z,8.27
2023-04-15T00:38:09.625Z,8.00
2023-04-15T00:40:36.903Z,7.43
2023-04-15T00:43:05.710Z,9.18
2023-04-15T00:45:33.525Z,7.28
2023-04-15T00:48:01.010Z,6.82
2023-04-15T00:50:28.296Z,7.73
2023-04-15T00:52:56.149Z,9.95
2023-04-15T00:55:23.744Z,9.07
2023-04-15T00:57:51.153Z,8.32
2023-04-15T01:00:18.429Z,8.50
2023-04-15T01:02:46.870Z,8.30
2023-04-15T01:05:17.290Z,8.65
2023-04-15T01:07:44.558Z,8.20
2023-04-15T01:10:12.041Z,9.25
2023-04-15T01:12:39.723Z,8.63
2023-04-15T01:15:08.358Z,9.10
2023-04-15T01:17:35.748Z,8.10
2023-04-15T01:20:02.973Z,9.43
2023-04-15T01:22:31.593Z,8.63
2023-04-15T01:25:20.422Z,7.82
2023-04-15T01:27:47.707Z,8.90
2023-04-15T01:30:16.338Z,8.93
2023-04-15T01:32:43.683Z,8.82
2023-04-15T01:35:12.162Z,8.00
2023-04-15T01:37:39.499Z,10.75
2023-04-15T01:40:08.112Z,9.70
2023-04-15T01:42:36.806Z,7.55
2023-04-15T01:45:04.312Z,8.82
2023-04-15T01:47:32.265Z,9.98
2023-04-15T01:49:59.591Z,9.25
2023-04-15T01:52:26.901Z,10.63
2023-04-15T01:54:54.184Z,10.15
2023-04-15T01:57:21.479Z,9.27
2023-04-15T01:59:48.781Z,8.18
2023-04-15T02:02:16.347Z,9.38
2023-04-15T02:04:43.633Z,8.17
2023-04-15T02:07:10.990Z,9.35
2023-04-15T02:09:38.728Z,9.35
2023-04-15T02:12:08.301Z,9.18
2023-04-15T02:14:35.764Z,10.05
2023-04-15T02:17:07.420Z,10.00
2023-04-15T02:19:35.337Z,9.38
2023-04-15T02:22:04.059Z,9.43
2023-04-15T02:24:31.652Z,9.55
2023-04-15T02:26:58.863Z,10.57
2023-04-15T02:29:26.252Z,9.73
2023-04-15T02:31:53.540Z,9.57
2023-04-15T02:34:20.924Z,10.48
2023-04-15T02:36:49.668Z,9.35
2023-04-15T02:39:18.651Z,10.18
2023-04-15T02:41:51.874Z,10.83
2023-04-15T02:44:20.645Z,10.50
2023-04-15T02:46:52.598Z,9.38
2023-04-15T02:49:21.952Z,10.07
2023-04-15T02:51:49.855Z,9.98
2023-04-15T02:54:17.728Z,11.43
2023-04-15T02:56:44.912Z,9.60
2023-04-15T02:59:12.939Z,12.65
2023-04-15T03:01:40.230Z,10.32
2023-04-15T03:04:10.221Z,11.82
2023-04-15T03:06:37.666Z,10.27
2023-04-15T03:09:05.038Z,10.48
2023-04-15T03:11:37.114Z,10.43
2023-04-15T03:14:04.863Z,9.02
2023-04-15T03:16:35.627Z,11.65
2023-04-15T03:19:03.154Z,10.20
2023-04-15T03:21:31.541Z,9.45
2023-04-15T03:23:58.910Z,10.88
2023-04-15T03:26:30.032Z,10.07
2023-04-15T03:29:01.734Z,10.48
2023-04-15T03:31:29.360Z,11.87
2023-04-15T03:33:56.599Z,9.88
2023-04-15T03:36:24.234Z,11.18
2023-04-15T03:38:51.504Z,10.38
2023-04-15T03:41:18.917Z,10.45
2023-04-15T03:43:46.228Z,10.07
2023-04-15T03:46:13.531Z,10.95
2023-04-15T03:48:40.834Z,10.57
2023-04-15T03:51:08.241Z,10.35
2023-04-15T03:53:35.652Z,12.15
2023-04-15T03:56:02.897Z,11.90
2023-04-15T03:58:30.141Z,11.43
2023-04-15T04:00:57.452Z,10.68
2023-04-15T04:03:24.888Z,12.63
2023-04-15T04:05:52.218Z,11.00
2023-04-15T04:08:20.498Z,11.67
2023-04-15T04:10:47.901Z,12.20
2023-04-15T04:13:15.141Z,16.35
2023-04-15T04:15:42.429Z,11.65
2023-04-15T04:18:09.636Z,12.00
2023-04-15T04:20:36.952Z,15.00
2023-04-15T04:23:04.290Z,13.98
2023-04-15T04:25:31.670Z,15.68
2023-04-15T04:27:59.432Z,14.48
2023-04-15T04:30:26.835Z,18.58
2023-04-15T04:32:54.112Z,17.10
2023-04-15T04:35:22.070Z,16.25
2023-04-15T04:37:49.277Z,15.50
2023-04-15T04:40:16.791Z,13.98
2023-04-15T04:42:43.989Z,14.93
2023-04-15T04:45:11.490Z,14.70
2023-04-15T04:47:38.747Z,12.52
2023-04-15T04:50:06.964Z,15.95
2023-04-15T04:52:34.211Z,13.05
2023-04-15T04:55:01.434Z,12.60
2023-04-15T04:57:28.664Z,12.43
2023-04-15T04:59:55.980Z,14.68
2023-04-15T05:02:23.410Z,19.02
2023-04-15T05:04:54.444Z,19.17
2023-04-15T05:07:22.283Z,20.58
2023-04-15T05:09:49.599Z,18.87
2023-04-15T05:12:18.263Z,15.82
2023-04-15T05:14:46.885Z,12.48
2023-04-15T05:17:14.428Z,11.57
2023-04-15T05:19:41.661Z,12.43
2023-04-15T05:22:09.060Z,13.30
2023-04-15T05:24:36.531Z,12.25
2023-04-15T05:27:03.830Z,11.35
2023-04-15T05:29:31.333Z,10.48
2023-04-15T05:31:58.672Z,11.50
2023-04-15T05:34:26.069Z,11.90
2023-04-15T05:36:53.396Z,13.88
2023-04-15T05:39:20.798Z,11.98
2023-04-15T05:41:48.122Z,10.63
2023-04-15T05:44:15.511Z,11.93
2023-04-15T05:46:43.478Z,11.03
2023-04-15T05:49:10.838Z,11.65
2023-04-15T05:51:38.041Z,11.82
2023-04-15T05:54:05.261Z,11.02
2023-04-15T05:56:32.708Z,13.05
2023-04-15T05:59:00.266Z,11.53
2023-04-15T06:01:27.791Z,15.18
2023-04-15T06:03:55.612Z,10.80
2023-04-15T06:06:23.568Z,10.45
2023-04-15T06:08:51.024Z,11.50
2023-04-15T06:11:18.273Z,13.73
2023-04-15T06:13:45.568Z,12.13
2023-04-15T06:16:13.565Z,12.60
2023-04-15T06:18:40.805Z,11.15
2023-04-15T06:21:08.131Z,11.55
2023-04-15T06:23:36.480Z,11.50
2023-04-15T06:26:03.837Z,12.18
2023-04-15T06:28:31.399Z,11.38
2023-04-15T06:30:58.726Z,11.40
2023-04-15T06:33:25.984Z,12.25
2023-04-15T06:35:53.347Z,12.70
2023-04-15T06:38:20.585Z,12.93
2023-04-15T06:40:47.943Z,10.10
2023-04-15T06:43:15.479Z,11.30
2023-04-15T06:45:42.784Z,12.05
2023-04-15T06:48:09.997Z,10.77
2023-04-15T06:50:37.764Z,10.82
2023-04-15T06:53:04.963Z,10.55
2023-04-15T06:55:32.430Z,9.30
2023-04-15T06:57:59.585Z,9.50
2023-04-15T07:00:28.362Z,10.13
2023-04-15T07:02:55.829Z,10.73
2023-04-15T07:05:23.375Z,10.77
2023-04-15T07:07:50.585Z,9.23
2023-04-15T07:10:17.827Z,9.65
2023-04-15T07:12:45.077Z,8.40
2023-04-15T07:15:12.621Z,10.07
2023-04-15T07:17:41.589Z,9.55
2023-04-15T07:20:09.358Z,7.93
2023-04-15T07:22:36.551Z,6.97
2023-04-15T07:25:04.291Z,9.97
2023-04-15T07:27:31.732Z,8.48
2023-04-15T07:29:58.960Z,10.60
2023-04-15T07:32:26.240Z,9.80
2023-04-15T07:34:53.647Z,8.82
2023-04-15T07:37:20.860Z,8.60
2023-04-15T07:39:49.103Z,6.60
2023-04-15T07:42:16.693Z,7.30
2023-04-15T07:44:43.942Z,13.38
2023-04-15T07:47:11.890Z,8.02
2023-04-15T07:49:39.334Z,9.07
2023-04-15T07:52:06.663Z,7.10
2023-04-15T07:54:33.924Z,7.38
2023-04-15T07:57:01.553Z,7.75
2023-04-15T07:59:30.250Z,7.75
2023-04-15T08:01:57.623Z,8.00
2023-04-15T08:04:25.291Z,7.45
2023-04-15T08:06:52.680Z,6.78
2023-04-15T08:09:20.094Z,7.15
2023-04-15T08:11:48.920Z,6.22
2023-04-15T08:14:16.842Z,11.70
2023-04-15T08:16:44.104Z,6.78
2023-04-15T08:19:11.534Z,7.40
2023-04-15T08:21:38.832Z,6.32
2023-04-15T08:24:06.940Z,7.88
2023-04-15T08:26:34.214Z,7.20
2023-04-15T08:29:01.871Z,7.45
2023-04-15T08:31:30.030Z,8.20
2023-04-15T08:33:57.813Z,6.80
2023-04-15T08:36:25.235Z,5.05
2023-04-15T08:38:52.573Z,6.63
2023-04-15T08:41:23.814Z,6.35
2023-04-15T08:43:58.156Z,7.18
2023-04-15T08:46:25.648Z,9.15
2023-04-15T08:48:52.865Z,8.05
2023-04-15T08:51:20.137Z,6.43
2023-04-15T08:53:47.889Z,6.60
2023-04-15T08:56:16.780Z,5.97
2023-04-15T08:58:44.973Z,6.00
2023-04-15T09:01:13.217Z,4.85
2023-04-15T09:03:40.889Z,6.97
2023-04-15T09:06:08.531Z,6.63
2023-04-15T09:08:35.994Z,4.28
2023-04-15T09:11:03.872Z,3.33
2023-04-15T09:13:31.342Z,3.50
2023-04-15T09:15:58.747Z,4.60
2023-04-15T09:18:43.970Z,5.63
2023-04-15T09:21:12.828Z,7.78
2023-04-15T09:23:58.118Z,10.57
2023-04-15T09:26:35.790Z,9.65
2023-04-15T09:29:10.564Z,11.53
2023-04-15T09:31:38.013Z,7.13
2023-04-15T09:34:05.238Z,8.32
2023-04-15T09:36:53.727Z,5.70
2023-04-15T09:39:21.607Z,6.63
2023-04-15T09:42:04.739Z,4.97
2023-04-15T09:44:32.279Z,4.25
2023-04-15T09:46:59.540Z,5.60
2023-04-15T09:49:27.492Z,6.57
2023-04-15T09:52:05.504Z,7.05
2023-04-15T09:54:37.583Z,5.83
2023-04-15T09:57:08.666Z,5.60
2023-04-15T09:59:36.328Z,5.88
2023-04-15T10:02:04.698Z,6.25
2023-04-15T10:04:33.270Z,6.32
2023-04-15T10:07:00.551Z,5.43
2023-04-15T10:09:28.459Z,6.35
2023-04-15T10:11:56.155Z,5.55
2023-04-15T10:14:23.876Z,6.97
2023-04-15T10:16:51.275Z,4.70
2023-04-15T10:19:19.833Z,6.67
2023-04-15T10:21:47.112Z,5.20
2023-04-15T10:24:14.409Z,6.47
2023-04-15T10:26:41.626Z,5.60
2023-04-15T10:29:09.327Z,5.43
2023-04-15T10:31:38.411Z,5.50
2023-04-15T10:34:06.731Z,5.25
2023-04-15T10:36:34.085Z,4.55
2023-04-15T10:39:01.455Z,5.10
2023-04-15T10:41:31.372Z,6.68
2023-04-15T10:44:03.284Z,5.60
2023-04-15T10:46:39.190Z,6.13
2023-04-15T10:49:13.717Z,5.80
2023-04-15T10:51:51.131Z,5.28
2023-04-15T10:54:24.663Z,5.32
2023-04-15T10:57:04.258Z,4.53
2023-04-15T10:59:38.361Z,5.47
2023-04-15T11:02:07.021Z,5.35
2023-04-15T11:04:57.616Z,4.20
2023-04-15T11:07:38.158Z,6.15
2023-04-15T11:10:17.609Z,4.23
2023-04-15T11:12:45.525Z,3.10
2023-04-15T11:15:31.461Z,5.63
2023-04-15T11:18:19.185Z,4.25
2023-04-15T11:20:50.958Z,4.18
2023-04-15T11:23:19.266Z,3.83
2023-04-15T11:25:46.506Z,4.85
2023-04-15T11:28:13.914Z,4.32
2023-04-15T11:30:42.083Z,3.88
2023-04-15T11:33:12.344Z,3.72
2023-04-15T11:35:41.676Z,2.13
2023-04-15T11:38:10.735Z,2.00
2023-04-15T11:40:38.690Z,3.03
2023-04-15T11:43:20.872Z,3.90
2023-04-15T11:45:53.317Z,3.47
2023-04-15T11:48:22.692Z,2.07
2023-04-15T11:50:57.220Z,4.38
2023-04-15T11:53:24.878Z,2.70
2023-04-15T11:55:53.184Z,3.78
2023-04-15T11:58:24.830Z,5.80
2023-04-15T12:00:57.308Z,3.27
2023-04-15T12:03:26.039Z,4.40
2023-04-15T12:06:21.406Z,2.70
2023-04-15T12:08:49.087Z,3.08
2023-04-15T12:11:39.888Z,2.78
2023-04-15T12:14:20.387Z,2.50
2023-04-15T12:16:50.095Z,2.53
2023-04-15T12:19:24.520Z,2.50
2023-04-15T12:21:53.626Z,3.88
2023-04-15T12:24:22.933Z,2.72
2023-04-15T12:26:53.166Z,2.57
2023-04-15T12:29:21.278Z,3.20
2023-04-15T12:31:50.799Z,2.95
2023-04-15T12:34:20.085Z,2.55
2023-04-15T12:36:47.647Z,2.42
2023-04-15T12:39:14.965Z,1.20
2023-04-15T12:41:42.207Z,3.47
2023-04-15T12:44:09.551Z,3.72
2023-04-15T12:46:36.899Z,4.78
2023-04-15T12:49:04.694Z,3.50
2023-04-15T12:51:31.929Z,3.20
2023-04-15T12:53:59.291Z,3.50
2023-04-15T12:56:26.988Z,2.75
2023-04-15T12:58:54.408Z,2.63
2023-04-15T13:01:21.845Z,2.60
2023-04-15T13:03:50.547Z,3.87
2023-04-15T13:06:17.827Z,5.57
2023-04-15T13:08:57.441Z,3.55
2023-04-15T13:11:26.168Z,3.20
2023-04-15T13:13:53.491Z,2.47
2023-04-15T13:16:21.936Z,3.37
2023-04-15T13:18:49.348Z,3.80
2023-04-15T13:21:16.996Z,4.43
2023-04-15T13:23:44.218Z,4.05
2023-04-15T13:26:11.601Z,3.10
2023-04-15T13:28:39.029Z,2.90
2023-04-15T13:31:06.563Z,4.63
2023-04-15T13:33:33.889Z,2.58
2023-04-15T13:36:01.401Z,3.63
2023-04-15T13:38:28.766Z,6.35
2023-04-15T13:40:56.176Z,6.03
2023-04-15T13:43:23.617Z,3.83
2023-04-15T13:45:51.008Z,2.75
2023-04-15T13:48:18.266Z,4.13
2023-04-15T13:50:45.784Z,3.50
2023-04-15T13:53:13.166Z,3.00
2023-04-15T13:55:43.240Z,3.85
2023-04-15T13:58:10.878Z,4.35
2023-04-15T14:00:38.145Z,2.72
2023-04-15T14:03:05.665Z,3.53
2023-04-15T14:05:32.956Z,3.03
2023-04-15T14:08:01.126Z,3.88
2023-04-15T14:10:28.354Z,3.15
2023-04-15T14:12:55.718Z,2.17
2023-04-15T14:15:22.949Z,5.20
2023-04-15T14:17:50.324Z,3.20
2023-04-15T14:20:17.745Z,2.65
2023-04-15T14:22:45.098Z,4.13
2023-04-15T14:25:19.965Z,3.35
2023-04-15T14:27:47.580Z,5.07
2023-04-15T14:30:14.758Z,3.57
2023-04-15T14:32:42.082Z,5.60
2023-04-15T14:35:09.502Z,3.00
2023-04-15T14:37:36.842Z,3.47
2023-04-15T14:40:04.267Z,3.38
2023-04-15T14:42:31.560Z,6.33
2023-04-15T14:44:58.819Z,2.75
2023-04-15T14:47:26.305Z,2.72
2023-04-15T14:49:53.701Z,3.00
2023-04-15T14:52:21.030Z,4.43
2023-04-15T14:54:48.205Z,2.40
2023-04-15T14:57:15.465Z,2.53
2023-04-15T14:59:42.709Z,4.60
2023-04-15T15:02:10.598Z,4.93
2023-04-15T15:04:38.950Z,2.95
2023-04-15T15:07:06.637Z,2.53
2023-04-15T15:09:35.026Z,3.78
2023-04-15T15:12:02.688Z,3.47
2023-04-15T15:14:29.918Z,2.70
2023-04-15T15:16:57.189Z,2.13
2023-04-15T15:19:24.956Z,2.27
2023-04-15T15:21:52.292Z,3.30
2023-04-15T15:24:19.528Z,3.20
2023-04-15T15:26:46.750Z,2.97
2023-04-15T15:29:13.980Z,3.10
2023-04-15T15:31:41.434Z,1.73
2023-04-15T15:34:08.698Z,2.38
2023-04-15T15:36:36.049Z,4.43
2023-04-15T15:39:04.953Z,3.22
2023-04-15T15:41:33.472Z,4.15
2023-04-15T15:44:01.107Z,4.43
2023-04-15T15:46:28.428Z,3.97
2023-04-15T15:48:55.851Z,2.50
2023-04-15T15:51:23.281Z,4.57
2023-04-15T15:53:50.802Z,3.97
2023-04-15T15:56:18.021Z,4.60
2023-04-15T15:58:45.218Z,4.00
2023-04-15T16:01:12.640Z,4.47
2023-04-15T16:03:40.003Z,4.85
2023-04-15T16:06:07.391Z,7.10
2023-04-15T16:08:34.583Z,4.60
2023-04-15T16:11:02.115Z,4.13
2023-04-15T16:13:29.369Z,6.28
2023-04-15T16:15:56.665Z,5.65
2023-04-15T16:18:23.877Z,5.85
2023-04-15T16:20:51.356Z,3.60
2023-04-15T16:23:19.669Z,4.95
2023-04-15T16:25:47.166Z,4.82
2023-04-15T16:28:25.623Z,4.80
2023-04-15T16:30:54.156Z,4.90
2023-04-15T16:33:21.375Z,5.13
2023-04-15T16:35:48.655Z,3.40
2023-04-15T16:38:15.856Z,4.38
2023-04-15T16:40:43.118Z,4.30
2023-04-15T16:43:11.528Z,4.72
2023-04-15T16:45:38.939Z,4.77
2023-04-15T16:48:06.472Z,2.88
2023-04-15T16:50:33.896Z,5.45
2023-04-15T16:53:01.599Z,3.53
2023-04-15T16:55:28.966Z,2.70
2023-04-15T16:58:02.027Z,2.83
2023-04-15T17:00:31.922Z,2.28
2023-04-15T17:03:00.493Z,3.30
2023-04-15T17:05:27.982Z,3.15
2023-04-15T17:07:55.583Z,3.63
2023-04-15T17:10:23.115Z,3.07
2023-04-15T17:12:52.189Z,2.15
2023-04-15T17:15:19.975Z,2.67
2023-04-15T17:17:47.280Z,3.47
2023-04-15T17:20:14.623Z,4.32
2023-04-15T17:22:42.023Z,4.23
2023-04-15T17:25:09.519Z,4.40
2023-04-15T17:27:38.668Z,4.47
2023-04-15T17:30:07.574Z,2.83
2023-04-15T17:32:35.124Z,4.00
2023-04-15T17:35:06.005Z,6.10
2023-04-15T17:37:36.158Z,4.35
2023-04-15T17:40:04.347Z,4.00
2023-04-15T17:42:32.579Z,3.13
2023-04-15T17:44:59.899Z,4.03
2023-04-15T17:47:27.817Z,4.43
2023-04-15T17:49:55.190Z,4.18
2023-04-15T17:52:22.411Z,5.50
2023-04-15T17:54:49.811Z,9.85
2023-04-15T17:57:16.995Z,12.95
2023-04-15T17:59:46.808Z,10.57
2023-04-15T18:02:14.731Z,13.52
2023-04-15T18:04:42.180Z,10.48
2023-04-15T18:07:09.641Z,7.60
2023-04-15T18:09:36.932Z,7.80
2023-04-15T18:12:04.773Z,6.67
2023-04-15T18:14:34.649Z,8.20
2023-04-15T18:17:03.004Z,6.03
2023-04-15T18:19:30.686Z,5.25
2023-04-15T18:22:00.083Z,3.65
2023-04-15T18:24:28.208Z,6.03
2023-04-15T18:26:56.616Z,7.75
2023-04-15T18:29:24.227Z,5.70
2023-04-15T18:31:52.319Z,4.35
2023-04-15T18:34:19.826Z,4.00
2023-04-15T18:36:46.987Z,4.43
2023-04-15T18:39:14.269Z,4.65
2023-04-15T18:41:41.490Z,3.90
2023-04-15T18:44:08.888Z,3.97
2023-04-15T18:46:36.194Z,3.88
2023-04-15T18:49:04.267Z,3.17
2023-04-15T18:51:32.674Z,4.57
2023-04-15T18:54:00.093Z,4.07
2023-04-15T18:56:27.333Z,4.40
2023-04-15T18:59:09.706Z,4.78
2023-04-15T19:01:41.989Z,4.07
2023-04-15T19:04:10.236Z,3.85
2023-04-15T19:06:37.838Z,3.75
2023-04-15T19:09:05.271Z,4.53
2023-04-15T19:11:32.802Z,4.45
2023-04-15T19:14:00.538Z,4.13
2023-04-15T19:16:27.887Z,5.38
2023-04-15T19:18:55.105Z,4.88
2023-04-15T19:21:22.559Z,5.65
2023-04-15T19:23:50.186Z,4.80
2023-04-15T19:26:17.485Z,5.00
2023-04-15T19:28:44.720Z,5.57
2023-04-15T19:31:12.076Z,6.65
2023-04-15T19:33:39.405Z,6.70
2023-04-15T19:36:07.061Z,6.65
2023-04-15T19:38:37.524Z,6.07
2023-04-15T19:41:04.860Z,6.90
2023-04-15T19:43:32.528Z,5.50
2023-04-15T19:45:59.846Z,6.97
2023-04-15T19:48:27.137Z,6.18
2023-04-15T19:50:54.484Z,6.80
2023-04-15T19:53:21.718Z,7.15
2023-04-15T19:55:48.997Z,6.90
2023-04-15T19:58:16.704Z,5.80
2023-04-15T20:00:44.117Z,5.80
2023-04-15T20:03:11.459Z,5.83
2023-04-15T20:05:38.839Z,4.95
2023-04-15T20:08:06.126Z,5.25
2023-04-15T20:10:33.558Z,5.22
2023-04-15T20:13:00.828Z,7.18
2023-04-15T20:15:28.084Z,5.93
2023-04-15T20:17:55.294Z,5.57
2023-04-15T20:20:22.695Z,5.82
2023-04-15T20:22:49.967Z,5.78
2023-04-15T20:25:17.300Z,5.32
2023-04-15T20:27:44.646Z,8.13
2023-04-15T20:30:11.987Z,8.00
2023-04-15T20:32:39.243Z,7.90
2023-04-15T20:35:07.103Z,7.45
2023-04-15T20:37:34.448Z,9.35
2023-04-15T20:40:02.250Z,9.03
2023-04-15T20:42:34.376Z,8.55
2023-04-15T20:45:02.141Z,7.70
2023-04-15T20:47:29.859Z,9.05
2023-04-15T20:49:57.375Z,7.70
2023-04-15T20:52:24.670Z,7.63
2023-04-15T20:54:51.943Z,8.05
2023-04-15T20:57:20.316Z,9.30
2023-04-15T20:59:47.659Z,8.63
2023-04-15T21:02:15.031Z,8.98
2023-04-15T21:04:42.365Z,9.13
2023-04-15T21:07:09.972Z,10.18
2023-04-15T21:09:41.424Z,7.45
2023-04-15T21:12:09.366Z,8.18
2023-04-15T21:14:37.078Z,9.55
2023-04-15T21:17:09.278Z,7.03
2023-04-15T21:19:37.455Z,7.93
2023-04-15T21:22:04.637Z,8.98
2023-04-15T21:24:31.987Z,8.63
2023-04-15T21:26:59.201Z,8.43
2023-04-15T21:29:26.449Z,8.83
2023-04-15T21:31:53.767Z,8.25
2023-04-15T21:34:21.274Z,8.38
2023-04-15T21:36:48.484Z,8.18
2023-04-15T21:39:15.919Z,7.57
2023-04-15T21:41:43.260Z,8.30
2023-04-15T21:44:12.646Z,8.75
2023-04-15T21:46:41.994Z,8.50
2023-04-15T21:49:13.886Z,8.30
2023-04-15T21:51:41.130Z,8.20
2023-04-15T21:54:08.401Z,7.93
2023-04-15T21:56:36.868Z,8.32
2023-04-15T21:59:04.389Z,8.95
2023-04-15T22:01:31.878Z,9.10
2023-04-15T22:03:59.271Z,9.48
2023-04-15T22:06:27.179Z,7.70
2023-04-15T22:08:57.394Z,7.70
2023-04-15T22:11:28.831Z,6.82
2023-04-15T22:13:57.326Z,7.93
2023-04-15T22:16:25.625Z,8.23
2023-04-15T22:18:53.554Z,7.87
2023-04-15T22:21:20.821Z,8.02
2023-04-15T22:23:48.578Z,7.57
2023-04-15T22:26:15.955Z,8.68
2023-04-15T22:28:43.249Z,9.55
2023-04-15T22:31:10.576Z,8.97
2023-04-15T22:33:38.968Z,7.15
2023-04-15T22:36:06.434Z,7.88
2023-04-15T22:38:33.819Z,7.50
2023-04-15T22:41:01.302Z,8.45
2023-04-15T22:43:28.678Z,7.10
2023-04-15T22:45:56.714Z,7.68
2023-04-15T22:48:24.142Z,6.68
2023-04-15T22:50:51.361Z,8.13
2023-04-15T22:53:18.729Z,7.45
2023-04-15T22:55:49.025Z,7.77
2023-04-15T22:58:17.168Z,9.07
2023-04-15T23:00:44.860Z,6.60
2023-04-15T23:03:12.460Z,7.78
2023-04-15T23:05:41.364Z,5.75
2023-04-15T23:08:08.854Z,7.53
2023-04-15T23:10:36.443Z,7.90
2023-04-15T23:13:03.735Z,8.27
2023-04-15T23:15:30.992Z,8.43
2023-04-15T23:18:00.320Z,8.73
2023-04-15T23:20:27.657Z,8.73
2023-04-15T23:22:54.946Z,12.00
2023-04-15T23:25:22.797Z,8.45
2023-04-15T23:27:50.331Z,7.20
2023-04-15T23:30:17.591Z,7.22
2023-04-15T23:32:44.952Z,8.37
2023-04-15T23:35:12.162Z,7.43
2023-04-15T23:37:39.557Z,8.35
2023-04-15T23:40:07.447Z,8.70
2023-04-15T23:42:34.733Z,7.63
2023-04-15T23:45:01.999Z,8.60
2023-04-15T23:47:29.394Z,8.73
2023-04-15T23:49:56.659Z,6.80
2023-04-15T23:52:24.149Z,8.85
2023-04-15T23:54:51.465Z,8.32
2023-04-15T23:57:18.928Z,6.67
2023-04-15T23:59:46.308Z,7.75
